Time;durP1;ratioP1;P1;durP2;ratioP2;P2;SDS_P1;SDS_P2;PMS_P1;PMS_P2;Temp;Humidity;BMP_temperature;BMP_pressure;BME280_temperature;BME280_humidity;BME280_pressure;Samples;Min_cycle;Max_cycle;Signal;HPM_P1;HPM_P2
2022/10/19 00:00:43;;;;;;;;;;;14.50;78.80;;;;;;5061486;28;20404;-77
2022/10/19 00:03:08;;;;;;;;;;;14.50;78.80;;;;;;5062555;28;20639;-78
2022/10/19 00:05:34;;;;;;;;;;;14.50;78.80;;;;;;5059830;28;19927;-78
2022/10/19 00:08:00;;;;;;;;;;;14.50;78.90;;;;;;5060242;28;20438;-78
2022/10/19 00:10:26;;;;;;;;;;;14.50;78.80;;;;;;5057889;28;19944;-78
2022/10/19 00:12:51;;;;;;;;;;;14.50;78.80;;;;;;5062362;28;20308;-78
2022/10/19 00:15:17;;;;;;;;;;;14.50;78.80;;;;;;5065278;28;19920;-78
2022/10/19 00:17:42;;;;;;;;;;;14.50;78.80;;;;;;5063118;28;20489;-77
2022/10/19 00:20:08;;;;;;;;;;;14.50;78.90;;;;;;5064365;28;20961;-78
2022/10/19 00:22:33;;;;;;;;;;;14.50;78.90;;;;;;5059373;28;19924;-79
2022/10/19 00:24:59;;;;;;;;;;;14.50;78.90;;;;;;5061098;28;19939;-79
2022/10/19 00:27:24;;;;;;;;;;;14.50;78.80;;;;;;5062180;28;19919;-78
2022/10/19 00:29:50;;;;;;;;;;;14.40;78.80;;;;;;5058671;28;20003;-78
2022/10/19 00:32:15;;;;;;;;;;;14.40;78.80;;;;;;5059179;28;19921;-79
2022/10/19 00:34:41;;;;;;;;;;;14.40;78.90;;;;;;5060395;28;20015;-78
2022/10/19 00:37:06;;;;;;;;;;;14.40;78.80;;;;;;5060669;28;19920;-78
2022/10/19 00:39:32;;;;;;;;;;;14.40;78.90;;;;;;5059961;28;19964;-78
2022/10/19 00:41:57;;;;;;;;;;;14.40;78.90;;;;;;5063827;28;20581;-79
2022/10/19 00:44:29;;;;;;;;;;;14.40;78.90;;;;;;5060448;28;19927;-77
2022/10/19 00:47:01;;;;;;;;;;;14.40;78.90;;;;;;5061370;28;20329;-78
2022/10/19 00:49:30;;;;;;;;;;;14.40;78.90;;;;;;5065234;28;19927;-79
2022/10/19 00:51:56;;;;;;;;;;;14.30;78.80;;;;;;5060022;28;19929;-78
2022/10/19 00:54:21;;;;;;;;;;;14.30;78.80;;;;;;5063030;28;20012;-78
2022/10/19 00:56:47;;;;;;;;;;;14.40;78.90;;;;;;5056060;28;20428;-78
2022/10/19 00:59:14;;;;;;;;;;;14.30;78.90;;;;;;5059348;28;19916;-78
2022/10/19 01:01:39;;;;;;;;;;;14.30;78.90;;;;;;5059436;28;19924;-79
2022/10/19 01:04:05;;;;;;;;;;;14.30;78.90;;;;;;5061727;28;19931;-78
2022/10/19 01:06:30;;;;;;;;;;;14.30;78.90;;;;;;5058641;28;20486;-79
2022/10/19 01:08:56;;;;;;;;;;;14.30;78.90;;;;;;5061958;28;19959;-78
2022/10/19 01:11:35;;;;;;;;;;;14.30;79.00;;;;;;5062235;28;20286;-79
2022/10/19 01:14:13;;;;;;;;;;;14.30;78.90;;;;;;5061054;28;19923;-78
2022/10/19 01:16:42;;;;;;;;;;;14.20;79.80;;;;;;5057818;28;19913;-78
2022/10/19 01:19:15;;;;;;;;;;;14.20;79.00;;;;;;5057812;28;19927;-78
2022/10/19 01:21:43;;;;;;;;;;;14.20;79.00;;;;;;5058283;28;20292;-78
2022/10/19 01:24:09;;;;;;;;;;;14.20;79.00;;;;;;5063204;28;19920;-79
2022/10/19 01:26:43;;;;;;;;;;;14.20;79.00;;;;;;5059419;28;20459;-77
2022/10/19 01:29:08;;;;;;;;;;;14.20;79.10;;;;;;5065807;28;19951;-77
2022/10/19 01:31:34;;;;;;;;;;;14.10;79.00;;;;;;5060479;28;19966;-78
2022/10/19 01:34:12;;;;;;;;;;;14.20;79.10;;;;;;5060593;28;19920;-78
2022/10/19 01:36:40;;;;;;;;;;;14.10;79.10;;;;;;5056148;28;19916;-78
2022/10/19 01:39:14;;;;;;;;;;;14.10;79.10;;;;;;5063878;28;20491;-79
2022/10/19 01:41:48;;;;;;;;;;;14.10;79.10;;;;;;5059797;28;19939;-78
2022/10/19 01:44:18;;;;;;;;;;;14.10;79.10;;;;;;5061597;28;19959;-78
2022/10/19 01:46:43;;;;;;;;;;;14.10;79.20;;;;;;5057279;28;19943;-78
2022/10/19 01:49:11;;;;;;;;;;;14.10;79.20;;;;;;5055109;28;20381;-78
2022/10/19 01:51:38;;;;;;;;;;;14.00;79.20;;;;;;5057002;28;19929;-79
2022/10/19 01:54:05;;;;;;;;;;;14.00;79.20;;;;;;5058992;28;19948;-78
2022/10/19 01:56:30;;;;;;;;;;;14.00;79.20;;;;;;5062674;28;20589;-78
2022/10/19 01:58:56;;;;;;;;;;;14.00;79.20;;;;;;5055312;28;19917;-78
2022/10/19 02:01:22;;;;;;;;;;;14.00;79.20;;;;;;5061458;28;19917;-79
2022/10/19 02:03:48;;;;;;;;;;;14.00;79.20;;;;;;5055973;28;20404;-78
2022/10/19 02:06:13;;;;;;;;;;;14.00;79.20;;;;;;5062739;28;19927;-78
2022/10/19 02:08:43;;;;;;;;;;;14.00;79.20;;;;;;5056037;28;19960;-79
2022/10/19 02:11:08;;;;;;;;;;;13.90;79.10;;;;;;5059842;28;19974;-77
2022/10/19 02:13:34;;;;;;;;;;;14.00;79.20;;;;;;5062696;28;19925;-79
2022/10/19 02:16:00;;;;;;;;;;;13.90;79.90;;;;;;5058306;28;19917;-78
2022/10/19 02:18:27;;;;;;;;;;;14.00;79.20;;;;;;5060253;28;20366;-78
2022/10/19 02:20:53;;;;;;;;;;;13.90;79.20;;;;;;5063739;28;20444;-79
2022/10/19 02:23:19;;;;;;;;;;;13.90;79.20;;;;;;5073930;28;19920;-78
2022/10/19 02:25:45;;;;;;;;;;;13.90;79.20;;;;;;5060011;28;19943;-78
2022/10/19 02:28:10;;;;;;;;;;;13.90;79.30;;;;;;5058649;28;19924;-78
2022/10/19 02:30:35;;;;;;;;;;;13.90;79.30;;;;;;5062223;28;19924;-78
2022/10/19 02:33:01;;;;;;;;;;;13.90;79.30;;;;;;5057756;28;20015;-78
2022/10/19 02:35:26;;;;;;;;;;;13.90;79.30;;;;;;5064466;28;19916;-79
2022/10/19 02:37:52;;;;;;;;;;;13.90;79.40;;;;;;5060498;28;19995;-78
2022/10/19 02:40:17;;;;;;;;;;;13.90;79.40;;;;;;5062562;28;19921;-79
2022/10/19 02:42:43;;;;;;;;;;;13.90;79.40;;;;;;5055561;28;19923;-78
2022/10/19 02:45:15;;;;;;;;;;;13.90;79.40;;;;;;5065435;28;19927;-78
2022/10/19 02:47:40;;;;;;;;;;;13.80;79.30;;;;;;5057764;28;19917;-79
2022/10/19 02:50:06;;;;;;;;;;;13.90;79.40;;;;;;5058267;28;19946;-79
2022/10/19 02:52:31;;;;;;;;;;;13.90;79.40;;;;;;5066378;28;20026;-78
2022/10/19 02:54:57;;;;;;;;;;;13.90;79.40;;;;;;5075001;28;19920;-78
2022/10/19 02:57:23;;;;;;;;;;;13.90;80.20;;;;;;5074574;28;20415;-79
2022/10/19 02:59:48;;;;;;;;;;;13.90;79.40;;;;;;5070987;28;19981;-79
2022/10/19 03:02:14;;;;;;;;;;;13.80;79.30;;;;;;5056125;28;19920;-79
2022/10/19 03:04:43;;;;;;;;;;;13.90;79.40;;;;;;5074409;28;19963;-79
2022/10/19 03:07:09;;;;;;;;;;;13.90;79.40;;;;;;5056344;28;19924;-77
2022/10/19 03:09:35;;;;;;;;;;;13.80;79.40;;;;;;5070286;28;20015;-79
2022/10/19 03:12:00;;;;;;;;;;;13.80;79.40;;;;;;5077080;28;20007;-78
2022/10/19 03:14:26;;;;;;;;;;;13.90;79.50;;;;;;5071342;28;19951;-78
2022/10/19 03:16:51;;;;;;;;;;;13.90;79.50;;;;;;5075548;28;20604;-78
2022/10/19 03:19:17;;;;;;;;;;;13.90;79.50;;;;;;5079324;28;19915;-77
2022/10/19 03:21:42;;;;;;;;;;;13.80;79.50;;;;;;5076059;28;20293;-78
2022/10/19 03:24:07;;;;;;;;;;;13.90;79.50;;;;;;5065704;28;19928;-78
2022/10/19 03:26:33;;;;;;;;;;;13.80;79.40;;;;;;5077809;28;19923;-80
2022/10/19 03:28:58;;;;;;;;;;;13.80;79.40;;;;;;5078079;28;19978;-78
2022/10/19 03:31:25;;;;;;;;;;;13.80;79.40;;;;;;5079552;28;19916;-78
2022/10/19 03:33:51;;;;;;;;;;;13.80;79.50;;;;;;5076325;28;19985;-78
2022/10/19 03:36:26;;;;;;;;;;;13.80;79.50;;;;;;5076132;28;20376;-79
2022/10/19 03:38:53;;;;;;;;;;;13.80;79.50;;;;;;5076972;28;19920;-78
2022/10/19 03:41:21;;;;;;;;;;;13.80;79.50;;;;;;5059971;28;19916;-78
2022/10/19 03:43:47;;;;;;;;;;;13.80;79.50;;;;;;5079216;28;19970;-79
2022/10/19 03:46:12;;;;;;;;;;;13.80;79.50;;;;;;5062747;28;19920;-78
2022/10/19 03:48:38;;;;;;;;;;;13.80;79.50;;;;;;5078885;28;19920;-79
2022/10/19 03:51:07;;;;;;;;;;;13.80;79.50;;;;;;5077806;28;19923;-79
2022/10/19 03:53:33;;;;;;;;;;;13.70;79.50;;;;;;5079255;28;19923;-77
2022/10/19 03:56:05;;;;;;;;;;;13.80;79.50;;;;;;5077337;28;19916;-78
2022/10/19 03:58:32;;;;;;;;;;;13.80;79.50;;;;;;5060834;28;19916;-78
2022/10/19 04:00:57;;;;;;;;;;;13.80;79.50;;;;;;5074414;28;19923;-78
2022/10/19 04:03:23;;;;;;;;;;;13.80;79.60;;;;;;5077360;28;19916;-78
2022/10/19 04:05:48;;;;;;;;;;;13.70;79.50;;;;;;5075475;28;19920;-78
2022/10/19 04:08:14;;;;;;;;;;;13.80;80.40;;;;;;5075710;28;20576;-79
2022/10/19 04:10:39;;;;;;;;;;;13.80;79.60;;;;;;5075178;28;19920;-78
2022/10/19 04:13:05;;;;;;;;;;;13.70;79.60;;;;;;5078167;28;20404;-78
2022/10/19 04:15:30;;;;;;;;;;;13.70;79.50;;;;;;5058176;28;20037;-79
2022/10/19 04:17:56;;;;;;;;;;;13.70;79.60;;;;;;5076766;28;19931;-77
2022/10/19 04:20:21;;;;;;;;;;;13.70;79.60;;;;;;5060084;28;20285;-78
2022/10/19 04:22:46;;;;;;;;;;;13.70;79.60;;;;;;5077844;28;19923;-78
2022/10/19 04:25:12;;;;;;;;;;;13.70;79.60;;;;;;5074206;28;20485;-79
2022/10/19 04:27:37;;;;;;;;;;;13.70;79.60;;;;;;5075482;28;19972;-78
2022/10/19 04:30:03;;;;;;;;;;;13.70;79.60;;;;;;5073320;28;20066;-78
2022/10/19 04:32:29;;;;;;;;;;;13.70;79.60;;;;;;5073351;28;19928;-78
2022/10/19 04:34:54;;;;;;;;;;;13.70;79.60;;;;;;5074412;28;20377;-79
2022/10/19 04:37:20;;;;;;;;;;;13.70;79.60;;;;;;5075249;28;19923;-79
2022/10/19 04:39:45;;;;;;;;;;;13.70;79.60;;;;;;5072965;28;19924;-79
2022/10/19 04:42:10;;;;;;;;;;;13.70;79.60;;;;;;5070969;28;19924;-79
2022/10/19 04:44:36;;;;;;;;;;;13.70;79.60;;;;;;5053269;28;19968;-80
2022/10/19 04:47:01;;;;;;;;;;;13.70;79.70;;;;;;5066451;28;19917;-80
2022/10/19 04:49:27;;;;;;;;;;;13.60;79.60;;;;;;5050396;28;20018;-78
2022/10/19 04:51:52;;;;;;;;;;;13.70;79.70;;;;;;5072077;28;19946;-80
2022/10/19 04:54:18;;;;;;;;;;;13.60;79.60;;;;;;5071487;28;20347;-78
2022/10/19 04:56:44;;;;;;;;;;;13.70;79.70;;;;;;5072166;28;20020;-79
2022/10/19 04:59:09;;;;;;;;;;;13.70;79.70;;;;;;5073768;28;19920;-79
2022/10/19 05:01:35;;;;;;;;;;;13.60;79.60;;;;;;5074468;28;19987;-79
2022/10/19 05:04:00;;;;;;;;;;;13.60;79.70;;;;;;5074061;28;19916;-79
2022/10/19 05:06:26;;;;;;;;;;;13.60;79.70;;;;;;5070349;28;19923;-79
2022/10/19 05:08:51;;;;;;;;;;;13.60;79.70;;;;;;5072555;28;20439;-78
2022/10/19 05:11:17;;;;;;;;;;;13.60;79.70;;;;;;5078046;28;19923;-80
2022/10/19 05:13:42;;;;;;;;;;;13.60;79.70;;;;;;5080155;28;19993;-79
2022/10/19 05:16:09;;;;;;;;;;;13.60;79.70;;;;;;5071916;28;20391;-79
2022/10/19 05:18:35;;;;;;;;;;;13.60;79.70;;;;;;5074310;28;19917;-78
2022/10/19 05:21:04;;;;;;;;;;;13.60;79.70;;;;;;5074937;28;19917;-78
2022/10/19 05:23:29;;;;;;;;;;;13.60;79.70;;;;;;5074889;28;19977;-79
2022/10/19 05:26:05;;;;;;;;;;;13.60;79.80;;;;;;5072979;28;20348;-79
2022/10/19 05:28:30;;;;;;;;;;;13.60;79.80;;;;;;5069798;28;19920;-78
2022/10/19 05:31:03;;;;;;;;;;;13.60;79.80;;;;;;5071910;28;21050;-79
2022/10/19 05:33:28;;;;;;;;;;;13.50;79.80;;;;;;5061291;28;19943;-79
2022/10/19 05:35:54;;;;;;;;;;;13.60;79.80;;;;;;5075893;28;19920;-80
2022/10/19 05:38:19;;;;;;;;;;;13.60;79.80;;;;;;5077205;28;20629;-80
2022/10/19 05:40:45;;;;;;;;;;;13.60;79.90;;;;;;5056566;28;19977;-79
2022/10/19 05:43:10;;;;;;;;;;;13.60;79.90;;;;;;5058472;28;19947;-80
2022/10/19 05:45:36;;;;;;;;;;;13.60;79.90;;;;;;5058754;28;19930;-77
2022/10/19 05:48:01;;;;;;;;;;;13.60;79.90;;;;;;5080666;28;19923;-78
2022/10/19 05:50:27;;;;;;;;;;;13.60;79.90;;;;;;5059509;28;20492;-77
2022/10/19 05:52:52;;;;;;;;;;;13.60;79.90;;;;;;5072025;28;19932;-77
2022/10/19 05:55:18;;;;;;;;;;;13.50;79.80;;;;;;5070389;28;19920;-78
2022/10/19 05:57:43;;;;;;;;;;;13.60;79.90;;;;;;5073419;28;20392;-78
2022/10/19 06:00:12;;;;;;;;;;;13.50;79.80;;;;;;5070466;28;19924;-77
2022/10/19 06:02:37;;;;;;;;;;;13.50;79.80;;;;;;5056068;28;19927;-77
2022/10/19 06:05:03;;;;;;;;;;;13.50;79.80;;;;;;5074538;28;19928;-76
2022/10/19 06:07:28;;;;;;;;;;;13.50;79.80;;;;;;5075064;28;19930;-77
2022/10/19 06:09:54;;;;;;;;;;;13.50;79.80;;;;;;5077961;28;19931;-77
2022/10/19 06:12:19;;;;;;;;;;;13.60;80.70;;;;;;5076122;28;19955;-78
2022/10/19 06:14:45;;;;;;;;;;;13.60;79.90;;;;;;5077626;28;19924;-78
2022/10/19 06:17:10;;;;;;;;;;;13.50;79.90;;;;;;5072887;28;19931;-77
2022/10/19 06:19:36;;;;;;;;;;;13.60;80.00;;;;;;5074154;28;20319;-77
2022/10/19 06:22:01;;;;;;;;;;;13.60;80.00;;;;;;5057916;28;20300;-77
2022/10/19 06:24:27;;;;;;;;;;;13.60;79.90;;;;;;5075477;28;19924;-77
2022/10/19 06:26:52;;;;;;;;;;;13.50;79.90;;;;;;5057086;28;19920;-77
2022/10/19 06:29:18;;;;;;;;;;;13.50;79.90;;;;;;5077675;28;20432;-77
2022/10/19 06:31:45;;;;;;;;;;;13.50;79.90;;;;;;5074079;28;19928;-77
2022/10/19 06:34:10;;;;;;;;;;;13.50;79.90;;;;;;5074115;28;19967;-78
2022/10/19 06:36:36;;;;;;;;;;;13.60;79.90;;;;;;5062108;28;19970;-78
2022/10/19 06:39:01;;;;;;;;;;;13.50;79.90;;;;;;5067638;28;19924;-78
2022/10/19 06:41:28;;;;;;;;;;;13.50;79.90;;;;;;5054646;28;19916;-77
2022/10/19 06:43:54;;;;;;;;;;;13.50;80.00;;;;;;5078401;28;19966;-77
2022/10/19 06:46:21;;;;;;;;;;;13.50;79.90;;;;;;5076546;28;19964;-76
2022/10/19 06:48:54;;;;;;;;;;;13.50;79.90;;;;;;5073908;28;20038;-77
2022/10/19 06:51:19;;;;;;;;;;;13.50;80.00;;;;;;5076655;28;19920;-77
2022/10/19 06:53:45;;;;;;;;;;;13.50;80.00;;;;;;5077145;28;20547;-78
2022/10/19 06:56:10;;;;;;;;;;;13.50;80.00;;;;;;5077055;28;19924;-77
2022/10/19 06:58:36;;;;;;;;;;;13.50;80.00;;;;;;5080335;28;20364;-77
2022/10/19 07:01:02;;;;;;;;;;;13.50;80.00;;;;;;5077552;28;19916;-77
2022/10/19 07:03:27;;;;;;;;;;;13.50;80.00;;;;;;5075291;28;19924;-77
2022/10/19 07:05:57;;;;;;;;;;;13.50;80.00;;;;;;5079310;28;19928;-78
2022/10/19 07:08:22;;;;;;;;;;;13.50;80.00;;;;;;5079793;28;19932;-77
2022/10/19 07:10:49;;;;;;;;;;;13.50;80.00;;;;;;5060357;28;20456;-77
2022/10/19 07:13:14;;;;;;;;;;;13.50;80.00;;;;;;5079474;28;19924;-77
2022/10/19 07:15:40;;;;;;;;;;;13.50;80.00;;;;;;5080925;28;20312;-78
2022/10/19 07:18:05;;;;;;;;;;;13.50;80.00;;;;;;5080192;28;19924;-77
2022/10/19 07:20:31;;;;;;;;;;;13.50;80.00;;;;;;5079225;28;20420;-77
2022/10/19 07:22:56;;;;;;;;;;;13.50;80.00;;;;;;5079982;28;20008;-78
2022/10/19 07:25:22;;;;;;;;;;;13.50;80.00;;;;;;5081628;28;19924;-77
2022/10/19 07:27:47;;;;;;;;;;;13.50;80.30;;;;;;5079610;28;20373;-76
2022/10/19 07:30:13;;;;;;;;;;;13.50;80.00;;;;;;5077824;28;19952;-77
2022/10/19 07:32:38;;;;;;;;;;;13.50;80.80;;;;;;5075307;28;19916;-77
2022/10/19 07:35:04;;;;;;;;;;;13.50;79.90;;;;;;5061085;28;19965;-76
2022/10/19 07:37:30;;;;;;;;;;;13.50;79.90;;;;;;5044063;28;20010;-77
2022/10/19 07:39:55;;;;;;;;;;;13.50;79.90;;;;;;5061207;28;19916;-76
2022/10/19 07:42:21;;;;;;;;;;;13.60;79.90;;;;;;5076056;28;19916;-76
2022/10/19 07:44:46;;;;;;;;;;;13.60;79.90;;;;;;5074792;28;19920;-76
2022/10/19 07:47:12;;;;;;;;;;;13.50;79.80;;;;;;5078586;28;19923;-76
2022/10/19 07:49:37;;;;;;;;;;;13.60;79.90;;;;;;5061505;28;20361;-76
2022/10/19 07:52:03;;;;;;;;;;;13.60;79.90;;;;;;5077410;28;20450;-76
2022/10/19 07:54:29;;;;;;;;;;;13.60;79.90;;;;;;5079592;28;19928;-76
2022/10/19 07:56:54;;;;;;;;;;;13.60;79.90;;;;;;5076789;28;19955;-76
2022/10/19 07:59:20;;;;;;;;;;;13.60;79.90;;;;;;5067016;28;20531;-77
2022/10/19 08:01:47;;;;;;;;;;;13.60;79.90;;;;;;5077225;28;19928;-76
2022/10/19 08:04:12;;;;;;;;;;;13.60;79.90;;;;;;5063454;28;19966;-77
2022/10/19 08:06:38;;;;;;;;;;;13.60;79.90;;;;;;5057250;28;19916;-77
2022/10/19 08:09:04;;;;;;;;;;;13.60;79.90;;;;;;5075009;28;19916;-76
2022/10/19 08:11:31;;;;;;;;;;;13.60;79.90;;;;;;5059699;28;20461;-77
2022/10/19 08:14:01;;;;;;;;;;;13.60;79.90;;;;;;5079285;28;19927;-77
2022/10/19 08:16:38;;;;;;;;;;;13.60;80.00;;;;;;5079094;28;19931;-76
2022/10/19 08:19:05;;;;;;;;;;;13.60;79.90;;;;;;5076419;28;19916;-76
2022/10/19 08:21:31;;;;;;;;;;;13.60;80.00;;;;;;5063952;28;20010;-77
2022/10/19 08:23:57;;;;;;;;;;;13.60;79.90;;;;;;5079013;28;20022;-76
2022/10/19 08:26:22;;;;;;;;;;;13.60;79.90;;;;;;5059950;28;19977;-77
2022/10/19 08:28:48;;;;;;;;;;;13.60;79.90;;;;;;5079934;28;19917;-76
2022/10/19 08:31:14;;;;;;;;;;;13.60;80.00;;;;;;5076799;28;19920;-76
2022/10/19 08:33:40;;;;;;;;;;;13.60;79.90;;;;;;5062296;28;19928;-77
2022/10/19 08:36:06;;;;;;;;;;;13.60;79.90;;;;;;5072606;28;20011;-77
2022/10/19 08:38:32;;;;;;;;;;;13.60;79.90;;;;;;5064082;28;19999;-77
2022/10/19 08:40:58;;;;;;;;;;;13.60;79.90;;;;;;5077637;28;19917;-76
2022/10/19 08:43:29;;;;;;;;;;;13.60;79.90;;;;;;5073751;28;19927;-76
2022/10/19 08:46:04;;;;;;;;;;;13.60;79.90;;;;;;5056667;28;19927;-76
2022/10/19 08:48:31;;;;;;;;;;;13.60;79.90;;;;;;5062918;28;19946;-76
2022/10/19 08:50:57;;;;;;;;;;;13.70;79.90;;;;;;5074210;28;19979;-76
2022/10/19 08:53:30;;;;;;;;;;;13.70;79.90;;;;;;5078972;28;20411;-76
2022/10/19 08:56:05;;;;;;;;;;;13.70;79.90;;;;;;5076467;28;20446;-77
2022/10/19 08:58:42;;;;;;;;;;;13.70;79.80;;;;;;5074041;28;19923;-76
2022/10/19 09:01:15;;;;;;;;;;;13.80;80.70;;;;;;5077960;28;19931;-77
2022/10/19 09:04:00;;;;;;;;;;;13.80;79.80;;;;;;5071165;28;19916;-76
2022/10/19 09:06:31;;;;;;;;;;;13.80;79.80;;;;;;5072208;28;19938;-76
2022/10/19 09:08:56;;;;;;;;;;;13.80;79.80;;;;;;5073692;28;20057;-76
2022/10/19 09:11:24;;;;;;;;;;;13.80;79.70;;;;;;5078785;28;20606;-76
2022/10/19 09:13:50;;;;;;;;;;;13.90;79.80;;;;;;5057106;28;19921;-76
2022/10/19 09:16:17;;;;;;;;;;;13.90;79.70;;;;;;5076592;28;19916;-77
2022/10/19 09:18:42;;;;;;;;;;;13.90;79.70;;;;;;5072077;28;20419;-78
2022/10/19 09:21:15;;;;;;;;;;;13.90;80.50;;;;;;5075912;28;19920;-77
2022/10/19 09:23:42;;;;;;;;;;;13.90;79.70;;;;;;5073754;28;19921;-76
2022/10/19 09:26:09;;;;;;;;;;;13.90;79.60;;;;;;5059328;28;20007;-76
2022/10/19 09:28:35;;;;;;;;;;;13.90;79.70;;;;;;5076493;28;19981;-77
2022/10/19 09:31:00;;;;;;;;;;;13.90;79.60;;;;;;5076668;28;19920;-76
2022/10/19 09:33:27;;;;;;;;;;;13.90;79.60;;;;;;5073792;28;20030;-76
2022/10/19 09:35:52;;;;;;;;;;;13.90;79.60;;;;;;5056621;28;20007;-76
2022/10/19 09:38:18;;;;;;;;;;;13.90;79.60;;;;;;5060775;28;20034;-76
2022/10/19 09:40:45;;;;;;;;;;;14.00;79.70;;;;;;5056176;28;19916;-76
2022/10/19 09:43:29;;;;;;;;;;;14.00;79.60;;;;;;5059968;28;19924;-77
2022/10/19 09:46:05;;;;;;;;;;;14.00;79.60;;;;;;5074421;28;19916;-76
2022/10/19 09:48:49;;;;;;;;;;;14.00;79.60;;;;;;5072494;28;20405;-76
2022/10/19 09:51:15;;;;;;;;;;;14.00;79.50;;;;;;5071933;28;19916;-76
2022/10/19 09:53:43;;;;;;;;;;;14.10;79.60;;;;;;5072457;28;19947;-77
2022/10/19 09:56:15;;;;;;;;;;;14.10;79.60;;;;;;5054469;28;19998;-75
2022/10/19 09:58:45;;;;;;;;;;;14.10;79.50;;;;;;5071460;28;20392;-77
2022/10/19 10:01:11;;;;;;;;;;;14.10;79.50;;;;;;5072140;28;19924;-76
2022/10/19 10:03:42;;;;;;;;;;;14.10;79.40;;;;;;5055643;28;19916;-76
2022/10/19 10:06:08;;;;;;;;;;;14.20;79.50;;;;;;5052507;28;19916;-77
2022/10/19 10:08:35;;;;;;;;;;;14.20;79.40;;;;;;5053550;28;20280;-76
2022/10/19 10:11:08;;;;;;;;;;;14.20;79.40;;;;;;5070924;28;19912;-77
2022/10/19 10:13:37;;;;;;;;;;;14.30;79.40;;;;;;5055422;28;19920;-76
2022/10/19 10:16:03;;;;;;;;;;;14.30;79.40;;;;;;5070382;28;19958;-76
2022/10/19 10:18:29;;;;;;;;;;;14.30;79.40;;;;;;5045023;28;19952;-75
2022/10/19 10:20:55;;;;;;;;;;;14.30;79.40;;;;;;5052541;28;19912;-76
2022/10/19 10:23:25;;;;;;;;;;;14.30;79.40;;;;;;5073431;28;19923;-77
2022/10/19 10:25:53;;;;;;;;;;;14.40;79.40;;;;;;5076714;28;19920;-76
2022/10/19 10:28:19;;;;;;;;;;;14.40;79.40;;;;;;5079052;28;19916;-76
2022/10/19 10:30:45;;;;;;;;;;;14.40;79.30;;;;;;5065984;28;19919;-76
2022/10/19 10:33:14;;;;;;;;;;;14.40;79.30;;;;;;5080726;28;19928;-78
2022/10/19 10:35:40;;;;;;;;;;;14.50;79.30;;;;;;5051396;28;19920;-76
2022/10/19 10:38:11;;;;;;;;;;;14.50;79.20;;;;;;5061747;28;19976;-75
2022/10/19 10:40:37;;;;;;;;;;;14.50;79.20;;;;;;5057747;28;20011;-77
2022/10/19 10:43:07;;;;;;;;;;;14.60;79.20;;;;;;5065741;28;20352;-76
2022/10/19 10:45:37;;;;;;;;;;;14.60;79.20;;;;;;5079799;28;20490;-77
2022/10/19 10:48:13;;;;;;;;;;;14.70;79.20;;;;;;5077307;28;20526;-75
2022/10/19 10:50:39;;;;;;;;;;;14.70;79.20;;;;;;5059797;28;20472;-76
2022/10/19 10:53:06;;;;;;;;;;;14.80;79.10;;;;;;5056418;28;19929;-77
2022/10/19 10:55:32;;;;;;;;;;;14.80;79.00;;;;;;5072704;28;19946;-76
2022/10/19 10:58:01;;;;;;;;;;;14.80;78.90;;;;;;5058550;28;19985;-77
2022/10/19 11:00:27;;;;;;;;;;;14.90;79.00;;;;;;5059065;28;19923;-76
2022/10/19 11:02:52;;;;;;;;;;;14.90;78.90;;;;;;5060236;28;19917;-77
2022/10/19 11:05:20;;;;;;;;;;;15.00;78.80;;;;;;5058400;28;19955;-77
2022/10/19 11:07:46;;;;;;;;;;;15.00;78.80;;;;;;5052168;28;20021;-76
2022/10/19 11:10:15;;;;;;;;;;;15.00;78.70;;;;;;5058474;28;19923;-77
2022/10/19 11:12:43;;;;;;;;;;;15.10;78.80;;;;;;5056093;28;19971;-75
2022/10/19 11:15:17;;;;;;;;;;;15.10;78.80;;;;;;5057035;28;20028;-77
2022/10/19 11:17:47;;;;;;;;;;;15.10;78.80;;;;;;5059261;28;19931;-77
2022/10/19 11:20:14;;;;;;;;;;;15.10;78.70;;;;;;5059142;28;19966;-77
2022/10/19 11:22:43;;;;;;;;;;;15.20;78.70;;;;;;5058628;28;20384;-77
2022/10/19 11:25:11;;;;;;;;;;;15.30;78.70;;;;;;5045192;28;20288;-77
2022/10/19 11:27:39;;;;;;;;;;;15.30;78.60;;;;;;5062435;28;20265;-78
2022/10/19 11:30:18;;;;;;;;;;;15.30;78.60;;;;;;5061488;28;19959;-76
2022/10/19 11:32:45;;;;;;;;;;;15.30;79.30;;;;;;5060545;28;19967;-77
2022/10/19 11:35:11;;;;;;;;;;;15.40;78.50;;;;;;5060068;28;19932;-76
2022/10/19 11:37:44;;;;;;;;;;;15.40;78.40;;;;;;5056022;28;19917;-76
2022/10/19 11:40:18;;;;;;;;;;;15.40;78.40;;;;;;5053329;28;19912;-77
2022/10/19 11:42:46;;;;;;;;;;;15.50;78.50;;;;;;5056776;28;19916;-76
2022/10/19 11:45:17;;;;;;;;;;;15.50;78.40;;;;;;5054234;28;19925;-77
2022/10/19 11:47:50;;;;;;;;;;;15.50;78.40;;;;;;5051607;28;20265;-77
2022/10/19 11:50:18;;;;;;;;;;;15.50;78.40;;;;;;5055940;28;19917;-76
2022/10/19 11:52:50;;;;;;;;;;;15.60;78.40;;;;;;5076606;28;19942;-76
2022/10/19 11:55:30;;;;;;;;;;;15.60;78.30;;;;;;5078004;28;19916;-77
2022/10/19 11:57:56;;;;;;;;;;;15.60;78.30;;;;;;5079372;28;19912;-76
2022/10/19 12:00:21;;;;;;;;;;;15.60;78.30;;;;;;5078240;28;20627;-76
2022/10/19 12:02:50;;;;;;;;;;;15.60;78.30;;;;;;5077903;28;19919;-77
2022/10/19 12:05:18;;;;;;;;;;;15.60;78.30;;;;;;5077383;28;19924;-76
2022/10/19 12:08:03;;;;;;;;;;;15.60;78.20;;;;;;5077783;28;19916;-76
2022/10/19 12:10:32;;;;;;;;;;;15.60;78.30;;;;;;5076370;28;19917;-76
2022/10/19 12:13:01;;;;;;;;;;;15.70;78.30;;;;;;5054160;28;19927;-76
2022/10/19 12:15:28;;;;;;;;;;;15.70;78.20;;;;;;5073438;28;20128;-76
2022/10/19 12:17:55;;;;;;;;;;;15.70;78.20;;;;;;5073029;28;19920;-78
2022/10/19 12:20:25;;;;;;;;;;;15.70;78.20;;;;;;5067373;28;19916;-76
2022/10/19 12:22:50;;;;;;;;;;;15.70;79.00;;;;;;5059869;28;19984;-76
2022/10/19 12:25:16;;;;;;;;;;;15.80;78.20;;;;;;5079345;28;19958;-76
2022/10/19 12:27:41;;;;;;;;;;;15.80;78.10;;;;;;5057163;28;20399;-76
2022/10/19 12:30:07;;;;;;;;;;;15.80;78.10;;;;;;5075536;28;20409;-76
2022/10/19 12:32:36;;;;;;;;;;;15.80;78.10;;;;;;5076460;28;20003;-76
2022/10/19 12:35:16;;;;;;;;;;;15.80;78.10;;;;;;5073259;28;20361;-76
2022/10/19 12:37:41;;;;;;;;;;;15.80;78.00;;;;;;5070321;28;19932;-76
2022/10/19 12:40:15;;;;;;;;;;;15.80;78.00;;;;;;5073777;28;19916;-77
2022/10/19 12:42:50;;;;;;;;;;;15.80;78.00;;;;;;5063420;28;19920;-76
2022/10/19 12:45:18;;;;;;;;;;;15.80;78.00;;;;;;5071668;28;19920;-76
2022/10/19 12:48:19;;;;;;;;;;;15.80;78.00;;;;;;5075559;28;19982;-77
2022/10/19 12:50:48;;;;;;;;;;;15.80;78.00;;;;;;5033088;28;19959;-77
2022/10/19 12:53:23;;;;;;;;;;;15.80;78.00;;;;;;5076928;28;20427;-76
2022/10/19 12:56:05;;;;;;;;;;;15.80;78.00;;;;;;5056208;28;20032;-76
2022/10/19 12:58:35;;;;;;;;;;;15.90;78.10;;;;;;5057179;28;19916;-76
2022/10/19 13:01:02;;;;;;;;;;;15.90;78.00;;;;;;5058841;28;19963;-76
2022/10/19 13:03:29;;;;;;;;;;;15.90;78.00;;;;;;5076540;28;19997;-76
2022/10/19 13:05:58;;;;;;;;;;;15.90;78.00;;;;;;5046849;28;19920;-76
2022/10/19 13:08:28;;;;;;;;;;;16.00;78.10;;;;;;5077551;28;19985;-77
2022/10/19 13:11:07;;;;;;;;;;;16.00;78.00;;;;;;5070003;28;19916;-77
2022/10/19 13:13:51;;;;;;;;;;;15.90;77.90;;;;;;5079197;28;19960;-77
2022/10/19 13:16:29;;;;;;;;;;;16.00;78.00;;;;;;5077252;28;19927;-77
2022/10/19 13:18:57;;;;;;;;;;;16.00;78.00;;;;;;5071870;28;19923;-77
2022/10/19 13:21:42;;;;;;;;;;;16.00;77.90;;;;;;5074279;28;19935;-77
2022/10/19 13:24:22;;;;;;;;;;;16.00;77.90;;;;;;5073614;28;19981;-76
2022/10/19 13:27:03;;;;;;;;;;;16.10;78.00;;;;;;5062816;28;19927;-77
2022/10/19 13:29:38;;;;;;;;;;;16.00;77.90;;;;;;5073271;28;19930;-77
2022/10/19 13:32:29;;;;;;;;;;;16.10;78.00;;;;;;5072960;28;19924;-77
2022/10/19 13:35:13;;;;;;;;;;;16.00;77.90;;;;;;5039208;28;20013;-76
2022/10/19 13:37:38;;;;;;;;;;;16.00;77.90;;;;;;5063274;28;19981;-77
2022/10/19 13:40:12;;;;;;;;;;;16.00;77.90;;;;;;5050580;28;20541;-77
2022/10/19 13:42:38;;;;;;;;;;;16.00;77.90;;;;;;5074045;28;20011;-76
2022/10/19 13:45:03;;;;;;;;;;;16.00;77.90;;;;;;5058248;28;20003;-76
2022/10/19 13:47:30;;;;;;;;;;;16.00;77.90;;;;;;5061130;28;19924;-76
2022/10/19 13:50:14;;;;;;;;;;;16.10;77.90;;;;;;5070863;28;20011;-75
2022/10/19 13:52:43;;;;;;;;;;;16.00;77.80;;;;;;5073231;28;19928;-76
2022/10/19 13:55:27;;;;;;;;;;;16.10;77.90;;;;;;5078601;28;20011;-76
2022/10/19 13:58:02;;;;;;;;;;;16.00;77.90;;;;;;5074975;28;19920;-77
2022/10/19 14:00:47;;;;;;;;;;;16.00;77.90;;;;;;5075245;28;20284;-77
2022/10/19 14:03:22;;;;;;;;;;;16.00;77.90;;;;;;5026083;28;19924;-75
2022/10/19 14:06:06;;;;;;;;;;;16.00;77.90;;;;;;5071979;28;19917;-76
2022/10/19 14:08:39;;;;;;;;;;;16.00;77.90;;;;;;5071592;28;20011;-76
2022/10/19 14:11:05;;;;;;;;;;;16.00;77.80;;;;;;5071768;28;19975;-77
2022/10/19 14:13:31;;;;;;;;;;;16.00;77.80;;;;;;5078194;28;20019;-75
2022/10/19 14:15:57;;;;;;;;;;;16.00;77.80;;;;;;5058748;28;20019;-78
2022/10/19 14:18:23;;;;;;;;;;;16.00;77.90;;;;;;5078061;28;19998;-76
2022/10/19 14:20:58;;;;;;;;;;;16.00;77.90;;;;;;5075294;28;20402;-77